Terminal Aerodrome Forecast
Issued by NWS Paducah, KY

Home | Current Version | Previous Version | Text Only | Print | Product List | Glossary On
Versions: 1 2 3 4 5 6 7 8 9 10 11 12 13 14 15
000
FTUS43 KPAH 311100
TAFPAH
TAF
KPAH 311132Z 3112/0112 00000KT 4SM BR FEW050 BKN250
     FM311300 21004KT P6SM SCT050 BKN250
     FM010700 00000KT 3SM BR SCT050 BKN100=

USA.gov is the U.S. government's official web portal to all federal, state and local government web resources and services.